createdAt,value
2022-12-27T00:02:29.078Z,7.30
2022-12-27T00:05:16.701Z,7.30
2022-12-27T00:08:04.561Z,7.20
2022-12-27T00:10:51.784Z,7.20
2022-12-27T00:13:39.002Z,7.10
2022-12-27T00:16:27.688Z,7.10
2022-12-27T00:19:15.036Z,7.10
2022-12-27T00:22:02.333Z,7.10
2022-12-27T00:24:49.666Z,7.10
2022-12-27T00:27:36.937Z,7.10
2022-12-27T00:30:24.470Z,7.20
2022-12-27T00:33:13.084Z,7.20
2022-12-27T00:36:00.830Z,7.20
2022-12-27T00:38:48.337Z,7.20
2022-12-27T00:41:35.629Z,7.20
2022-12-27T00:44:24.502Z,7.20
2022-12-27T00:47:11.916Z,7.20
2022-12-27T00:50:00.479Z,7.10
2022-12-27T00:52:47.590Z,7.10
2022-12-27T00:55:34.920Z,7.10
2022-12-27T00:58:22.661Z,7.10
2022-12-27T01:01:11.338Z,7.10
2022-12-27T01:03:59.272Z,7.00
2022-12-27T01:06:47.875Z,7.00
2022-12-27T01:09:35.187Z,7.00
2022-12-27T01:12:22.624Z,7.00
2022-12-27T01:15:10.962Z,6.90
2022-12-27T01:17:58.048Z,6.90
2022-12-27T01:20:45.533Z,7.00
2022-12-27T01:23:34.048Z,6.90
2022-12-27T01:26:22.708Z,6.90
2022-12-27T01:29:12.543Z,6.90
2022-12-27T01:31:59.691Z,6.80
2022-12-27T01:34:47.175Z,6.80
2022-12-27T01:37:34.498Z,6.80
2022-12-27T01:40:23.321Z,6.80
2022-12-27T01:43:15.170Z,6.80
2022-12-27T01:46:02.245Z,6.80
2022-12-27T01:48:49.544Z,6.70
2022-12-27T01:51:36.859Z,6.70
2022-12-27T01:54:24.840Z,6.70
2022-12-27T01:57:13.680Z,6.70
2022-12-27T02:00:00.906Z,6.70
2022-12-27T02:02:48.373Z,6.70
2022-12-27T02:05:36.103Z,6.70
2022-12-27T02:08:27.676Z,6.70
2022-12-27T02:11:14.967Z,6.70
2022-12-27T02:14:03.514Z,6.70
2022-12-27T02:16:51.241Z,6.60
2022-12-27T02:19:43.818Z,6.60
2022-12-27T02:23:11.174Z,6.30
2022-12-27T02:26:10.827Z,6.10
2022-12-27T02:29:22.131Z,5.90
2022-12-27T02:32:13.088Z,5.80
2022-12-27T02:35:05.220Z,5.80
2022-12-27T02:37:55.769Z,5.80
2022-12-27T02:41:01.805Z,5.80
2022-12-27T02:44:06.478Z,5.70
2022-12-27T02:47:11.024Z,5.70
2022-12-27T02:50:17.250Z,5.70
2022-12-27T02:53:08.966Z,5.60
2022-12-27T02:56:22.640Z,5.60
2022-12-27T02:59:19.303Z,5.50
2022-12-27T03:02:29.412Z,5.50
2022-12-27T03:05:22.653Z,5.40
2022-12-27T03:08:12.453Z,5.40
2022-12-27T03:11:17.569Z,5.40
2022-12-27T03:14:31.562Z,5.40
2022-12-27T03:17:23.595Z,5.30
2022-12-27T03:20:30.969Z,5.30
2022-12-27T03:23:37.089Z,5.20
2022-12-27T03:26:25.681Z,5.10
2022-12-27T03:29:31.491Z,5.00
2022-12-27T03:32:36.644Z,5.00
2022-12-27T03:35:24.228Z,4.90
2022-12-27T03:38:12.576Z,4.80
2022-12-27T03:41:20.017Z,4.80
2022-12-27T03:44:24.551Z,4.90
2022-12-27T03:47:14.380Z,4.80
2022-12-27T03:50:05.532Z,4.90
2022-12-27T03:52:56.327Z,4.80
2022-12-27T03:55:44.062Z,4.80
2022-12-27T03:58:32.841Z,4.80
2022-12-27T04:01:20.046Z,4.70
2022-12-27T04:04:07.082Z,4.60
2022-12-27T04:06:54.600Z,4.60
2022-12-27T04:09:59.386Z,4.60
2022-12-27T04:13:04.203Z,4.60
2022-12-27T04:16:10.156Z,4.50
2022-12-27T04:19:15.097Z,4.50
2022-12-27T04:22:19.781Z,4.50
2022-12-27T04:25:24.356Z,4.50
2022-12-27T04:28:29.133Z,4.40
2022-12-27T04:31:35.680Z,4.30
2022-12-27T04:34:41.064Z,4.30
2022-12-27T04:37:28.184Z,4.20
2022-12-27T04:40:33.515Z,4.20
2022-12-27T04:43:37.954Z,4.10
2022-12-27T04:46:44.310Z,4.00
2022-12-27T04:49:48.934Z,4.00
2022-12-27T04:52:53.397Z,4.00
2022-12-27T04:55:40.464Z,4.00
2022-12-27T04:58:27.892Z,4.10
2022-12-27T05:01:32.941Z,4.00
2022-12-27T05:04:21.885Z,4.00
2022-12-27T05:07:24.331Z,4.00
2022-12-27T05:10:43.757Z,3.90
2022-12-27T05:13:48.453Z,3.80
2022-12-27T05:16:36.778Z,3.80
2022-12-27T05:19:25.740Z,3.70
2022-12-27T05:22:30.278Z,3.60
2022-12-27T05:25:35.809Z,3.60
2022-12-27T05:28:23.077Z,3.50
2022-12-27T05:31:10.178Z,3.50
2022-12-27T05:33:57.858Z,3.50
2022-12-27T05:36:46.244Z,3.50
2022-12-27T05:39:33.330Z,3.40
2022-12-27T05:42:20.492Z,3.40
2022-12-27T05:45:08.533Z,3.30
2022-12-27T05:47:55.849Z,3.30
2022-12-27T05:50:43.267Z,3.20
2022-12-27T05:53:31.844Z,3.20
2022-12-27T05:56:20.020Z,3.20
2022-12-27T05:59:08.197Z,3.20
2022-12-27T06:01:55.357Z,3.20
2022-12-27T06:04:42.548Z,3.20
2022-12-27T06:07:30.114Z,3.30
2022-12-27T06:10:18.898Z,3.30
2022-12-27T06:13:06.626Z,3.30
2022-12-27T06:15:53.549Z,3.40
2022-12-27T06:18:41.836Z,3.40
2022-12-27T06:21:29.337Z,3.40
2022-12-27T06:24:17.094Z,3.40
2022-12-27T06:27:05.729Z,3.30
2022-12-27T06:29:52.850Z,3.30
2022-12-27T06:32:40.407Z,3.30
2022-12-27T06:35:27.715Z,3.30
2022-12-27T06:38:15.062Z,3.30
2022-12-27T06:41:02.857Z,3.40
2022-12-27T06:43:54.951Z,3.40
2022-12-27T06:46:41.993Z,3.40
2022-12-27T06:49:29.447Z,3.40
2022-12-27T06:52:16.812Z,3.40
2022-12-27T06:55:03.888Z,3.30
2022-12-27T06:57:51.679Z,3.20
2022-12-27T07:00:40.181Z,3.20
2022-12-27T07:03:27.271Z,3.10
2022-12-27T07:06:14.803Z,3.00
2022-12-27T07:09:02.253Z,3.00
2022-12-27T07:11:49.295Z,3.00
2022-12-27T07:14:36.782Z,2.90
2022-12-27T07:17:25.224Z,2.90
2022-12-27T07:20:12.871Z,2.90
2022-12-27T07:23:00.175Z,2.90
2022-12-27T07:25:47.746Z,3.00
2022-12-27T07:28:35.577Z,3.00
2022-12-27T07:31:24.559Z,2.90
2022-12-27T07:34:13.482Z,3.00
2022-12-27T07:37:01.733Z,3.10
2022-12-27T07:39:50.201Z,3.10
2022-12-27T07:42:37.519Z,3.20
2022-12-27T07:45:25.107Z,3.20
2022-12-27T07:48:14.994Z,3.20
2022-12-27T07:51:03.742Z,3.30
2022-12-27T07:53:51.415Z,3.30
2022-12-27T07:56:38.856Z,3.40
2022-12-27T07:59:27.597Z,3.40
2022-12-27T08:02:16.546Z,3.50
2022-12-27T08:05:04.208Z,3.50
2022-12-27T08:07:52.717Z,3.60
2022-12-27T08:10:40.043Z,3.60
2022-12-27T08:13:27.387Z,3.70
2022-12-27T08:16:16.477Z,3.70
2022-12-27T08:19:08.340Z,3.80
2022-12-27T08:21:55.960Z,3.90
2022-12-27T08:24:45.240Z,4.00
2022-12-27T08:27:32.616Z,4.00
2022-12-27T08:30:20.398Z,4.10
2022-12-27T08:33:07.761Z,4.20
2022-12-27T08:35:57.176Z,4.20
2022-12-27T08:38:44.333Z,4.30
2022-12-27T08:41:33.042Z,4.30
2022-12-27T08:44:20.094Z,4.40
2022-12-27T08:47:07.562Z,4.40
2022-12-27T08:49:55.023Z,4.50
2022-12-27T08:52:42.448Z,4.50
2022-12-27T08:55:30.464Z,4.50
2022-12-27T08:58:18.915Z,4.60
2022-12-27T09:01:06.855Z,4.70
2022-12-27T09:03:54.253Z,4.70
2022-12-27T09:06:42.243Z,4.70
2022-12-27T09:09:29.321Z,4.80
2022-12-27T09:12:16.720Z,4.90
2022-12-27T09:15:05.607Z,4.90
2022-12-27T09:17:52.959Z,5.00
2022-12-27T09:20:40.301Z,5.00
2022-12-27T09:23:28.769Z,5.10
2022-12-27T09:26:17.085Z,5.20
2022-12-27T09:29:04.916Z,5.30
2022-12-27T09:31:54.037Z,5.30
2022-12-27T09:34:41.230Z,5.40
2022-12-27T09:37:28.530Z,5.40
2022-12-27T09:40:15.991Z,5.50
2022-12-27T09:43:19.068Z,5.50
2022-12-27T09:46:14.376Z,5.60
2022-12-27T09:49:04.636Z,5.70
2022-12-27T09:51:53.249Z,5.70
2022-12-27T09:54:48.429Z,5.80
2022-12-27T09:57:37.420Z,5.80
2022-12-27T10:00:34.083Z,5.90
2022-12-27T10:03:25.224Z,6.00
2022-12-27T10:06:26.669Z,6.00
2022-12-27T10:09:25.822Z,6.10
2022-12-27T10:12:23.394Z,6.10
2022-12-27T10:15:20.088Z,6.20
2022-12-27T10:18:15.111Z,6.20
2022-12-27T10:21:05.003Z,6.20
2022-12-27T10:23:57.102Z,6.20
2022-12-27T10:26:44.651Z,6.10
2022-12-27T10:29:33.011Z,6.10
2022-12-27T10:32:20.317Z,6.10
2022-12-27T10:35:08.065Z,6.10
2022-12-27T10:37:56.636Z,6.20
2022-12-27T10:40:51.668Z,6.20
2022-12-27T10:43:41.197Z,6.30
2022-12-27T10:46:33.070Z,6.30
2022-12-27T10:49:23.640Z,6.30
2022-12-27T10:52:12.126Z,6.40
2022-12-27T10:54:59.262Z,6.50
2022-12-27T10:57:48.174Z,6.60
2022-12-27T11:00:35.201Z,6.60
2022-12-27T11:03:22.681Z,6.60
2022-12-27T11:06:19.615Z,6.60
2022-12-27T11:09:20.717Z,6.60
2022-12-27T11:12:16.890Z,6.60
2022-12-27T11:15:06.386Z,6.70
2022-12-27T11:17:55.065Z,6.80
2022-12-27T11:20:46.048Z,6.90
2022-12-27T11:23:36.233Z,6.90
2022-12-27T11:26:24.648Z,6.80
2022-12-27T11:29:17.064Z,6.80
2022-12-27T11:32:08.517Z,6.80
2022-12-27T11:34:56.622Z,6.90
2022-12-27T11:37:44.017Z,7.00
2022-12-27T11:40:36.487Z,6.90
2022-12-27T11:43:27.615Z,6.80
2022-12-27T11:46:19.457Z,6.90
2022-12-27T11:49:12.802Z,6.90
2022-12-27T11:52:18.299Z,7.00
2022-12-27T11:55:18.569Z,7.20
2022-12-27T11:58:19.846Z,7.40
2022-12-27T12:01:16.091Z,7.40
2022-12-27T12:04:18.005Z,7.40
2022-12-27T12:07:15.547Z,7.30
2022-12-27T12:10:10.318Z,7.10
2022-12-27T12:13:18.710Z,7.10
2022-12-27T12:16:19.093Z,7.10
2022-12-27T12:19:14.137Z,7.00
2022-12-27T12:22:11.188Z,7.00
2022-12-27T12:25:08.938Z,7.00
2022-12-27T12:28:30.106Z,6.90
2022-12-27T12:31:20.659Z,6.90
2022-12-27T12:34:15.493Z,6.80
2022-12-27T12:37:09.656Z,6.80
2022-12-27T12:40:11.888Z,6.80
2022-12-27T12:43:09.646Z,6.80
2022-12-27T12:46:22.857Z,6.80
2022-12-27T12:49:22.871Z,6.80
2022-12-27T12:52:21.476Z,6.70
2022-12-27T12:55:21.461Z,6.70
2022-12-27T12:58:17.506Z,6.60
2022-12-27T13:01:09.416Z,6.60
2022-12-27T13:04:03.115Z,6.50
2022-12-27T13:06:57.019Z,6.50
2022-12-27T13:09:51.540Z,6.40
2022-12-27T13:12:41.203Z,6.50
2022-12-27T13:15:34.458Z,6.50
2022-12-27T13:18:30.367Z,6.50
2022-12-27T13:21:23.681Z,6.40
2022-12-27T13:24:18.726Z,6.40
2022-12-27T13:27:10.474Z,6.40
2022-12-27T13:30:06.894Z,6.40
2022-12-27T13:33:03.240Z,6.40
2022-12-27T13:36:07.052Z,6.30
2022-12-27T13:39:12.310Z,6.30
2022-12-27T13:42:09.240Z,6.30
2022-12-27T13:45:03.627Z,6.30
2022-12-27T13:47:59.307Z,6.30
2022-12-27T13:51:04.629Z,6.20
2022-12-27T13:54:07.947Z,6.20
2022-12-27T13:57:00.958Z,6.10
2022-12-27T14:00:00.126Z,6.00
2022-12-27T14:02:58.631Z,6.00
2022-12-27T14:05:57.911Z,6.00
2022-12-27T14:08:58.933Z,6.00
2022-12-27T14:11:54.915Z,6.00
2022-12-27T14:14:42.707Z,6.00
2022-12-27T14:17:32.169Z,5.90
2022-12-27T14:20:43.320Z,6.00
2022-12-27T14:23:52.572Z,5.90
2022-12-27T14:26:58.560Z,5.90
2022-12-27T14:30:03.799Z,5.80
2022-12-27T14:33:09.821Z,5.80
2022-12-27T14:36:24.041Z,5.80
2022-12-27T14:39:28.630Z,5.80
2022-12-27T14:42:37.469Z,5.80
2022-12-27T14:45:41.312Z,5.70
2022-12-27T14:48:49.242Z,5.70
2022-12-27T14:52:03.618Z,5.70
2022-12-27T14:55:14.352Z,5.70
2022-12-27T14:58:10.993Z,5.60
2022-12-27T15:01:03.849Z,5.60
2022-12-27T15:04:00.436Z,5.60
2022-12-27T15:06:59.076Z,5.60
2022-12-27T15:09:50.092Z,5.50
2022-12-27T15:12:41.991Z,5.60
2022-12-27T15:15:37.365Z,5.50
2022-12-27T15:18:31.016Z,5.50
2022-12-27T15:21:21.415Z,5.50
2022-12-27T15:24:12.448Z,5.50
2022-12-27T15:27:03.174Z,5.40
2022-12-27T15:29:55.001Z,5.30
2022-12-27T15:32:52.858Z,5.20
2022-12-27T15:35:45.878Z,5.20
2022-12-27T15:38:41.214Z,5.20
2022-12-27T15:41:35.222Z,5.20
2022-12-27T15:44:40.292Z,5.20
2022-12-27T15:47:38.481Z,5.20
2022-12-27T15:50:40.431Z,5.10
2022-12-27T15:53:32.864Z,5.10
2022-12-27T15:56:37.125Z,5.10
2022-12-27T15:59:46.693Z,5.10
2022-12-27T16:02:36.036Z,5.10
2022-12-27T16:05:45.919Z,5.00
2022-12-27T16:08:34.573Z,5.00
2022-12-27T16:11:41.832Z,5.00
2022-12-27T16:14:32.232Z,5.10
2022-12-27T16:17:32.357Z,5.10
2022-12-27T16:20:20.423Z,5.20
2022-12-27T16:23:08.463Z,5.20
2022-12-27T16:26:01.284Z,5.20
2022-12-27T16:28:53.174Z,5.20
2022-12-27T16:31:46.081Z,5.20
2022-12-27T16:34:33.396Z,5.30
2022-12-27T16:37:31.251Z,5.40
2022-12-27T16:40:24.095Z,5.40
2022-12-27T16:43:32.535Z,5.40
2022-12-27T16:46:41.340Z,5.30
2022-12-27T16:49:51.421Z,5.30
2022-12-27T16:52:54.950Z,5.40
2022-12-27T16:56:01.027Z,5.40
2022-12-27T16:58:48.472Z,5.50
2022-12-27T17:01:56.498Z,5.50
2022-12-27T17:04:55.223Z,5.50
2022-12-27T17:07:44.114Z,5.50
2022-12-27T17:10:45.294Z,5.50
2022-12-27T17:13:36.873Z,5.40
2022-12-27T17:16:26.045Z,5.40
2022-12-27T17:19:18.756Z,5.50
2022-12-27T17:22:07.214Z,5.50
2022-12-27T17:24:57.770Z,5.50
2022-12-27T17:27:56.601Z,5.50
2022-12-27T17:30:48.339Z,5.50
2022-12-27T17:33:40.059Z,5.50
2022-12-27T17:36:33.377Z,5.50
2022-12-27T17:39:26.605Z,5.40
2022-12-27T17:42:35.187Z,5.40
2022-12-27T17:45:31.382Z,5.40
2022-12-27T17:48:25.406Z,5.30
2022-12-27T17:51:14.420Z,5.30
2022-12-27T17:54:19.915Z,5.30
2022-12-27T17:57:25.150Z,5.20
2022-12-27T18:00:22.921Z,5.20
2022-12-27T18:03:14.075Z,5.10
2022-12-27T18:06:01.498Z,5.10
2022-12-27T18:08:49.579Z,5.00
2022-12-27T18:11:37.129Z,4.90
2022-12-27T18:14:24.623Z,4.80
2022-12-27T18:17:25.337Z,4.70
2022-12-27T18:20:29.890Z,4.60
2022-12-27T18:23:18.871Z,4.50
2022-12-27T18:26:13.157Z,4.40
2022-12-27T18:29:00.948Z,4.30
2022-12-27T18:31:49.859Z,4.30
2022-12-27T18:34:39.610Z,4.30
2022-12-27T18:37:28.538Z,4.20
2022-12-27T18:40:19.766Z,4.20
2022-12-27T18:43:12.111Z,4.10
2022-12-27T18:45:59.529Z,4.10
2022-12-27T18:48:46.929Z,3.90
2022-12-27T18:51:35.556Z,3.90
2022-12-27T18:54:32.225Z,3.80
2022-12-27T18:57:29.227Z,3.80
2022-12-27T19:00:18.911Z,3.80
2022-12-27T19:03:15.872Z,3.80
2022-12-27T19:06:05.199Z,3.80
2022-12-27T19:08:53.546Z,3.80
2022-12-27T19:11:42.376Z,3.90
2022-12-27T19:14:36.750Z,3.90
2022-12-27T19:17:25.244Z,3.90
2022-12-27T19:20:18.821Z,3.90
2022-12-27T19:23:08.761Z,4.00
2022-12-27T19:26:00.318Z,4.00
2022-12-27T19:28:58.567Z,4.00
2022-12-27T19:31:52.638Z,4.10
2022-12-27T19:34:42.367Z,4.10
2022-12-27T19:37:30.367Z,4.00
2022-12-27T19:40:18.057Z,4.00
2022-12-27T19:43:05.503Z,4.00
2022-12-27T19:45:54.331Z,3.90
2022-12-27T19:48:42.088Z,3.90
2022-12-27T19:51:30.043Z,3.90
2022-12-27T19:54:19.085Z,3.90
2022-12-27T19:57:06.283Z,3.90
2022-12-27T19:59:53.658Z,3.90
2022-12-27T20:02:42.438Z,3.90
2022-12-27T20:06:12.368Z,3.90
2022-12-27T20:08:38.400Z,3.80
2022-12-27T20:11:27.759Z,3.70
2022-12-27T20:14:17.609Z,3.50
2022-12-27T20:17:05.221Z,3.40
2022-12-27T20:19:54.596Z,3.30
2022-12-27T20:22:41.860Z,3.20
2022-12-27T20:25:29.177Z,3.10
2022-12-27T20:28:17.277Z,3.00
2022-12-27T20:31:06.923Z,2.90
2022-12-27T20:33:54.614Z,3.00
2022-12-27T20:36:44.748Z,3.10
2022-12-27T20:39:31.883Z,3.30
2022-12-27T20:42:19.245Z,3.30
2022-12-27T20:45:06.980Z,3.50
2022-12-27T20:47:54.395Z,3.60
2022-12-27T20:50:42.165Z,3.60
2022-12-27T20:53:30.623Z,3.80
2022-12-27T20:56:18.237Z,3.80
2022-12-27T20:59:06.033Z,3.80
2022-12-27T21:01:57.007Z,3.80
2022-12-27T21:04:44.873Z,3.90
2022-12-27T21:07:32.140Z,3.90
2022-12-27T21:10:20.947Z,3.90
2022-12-27T21:13:08.759Z,3.80
2022-12-27T21:15:55.966Z,3.70
2022-12-27T21:18:43.346Z,3.70
2022-12-27T21:21:31.052Z,3.60
2022-12-27T21:24:18.285Z,3.50
2022-12-27T21:27:07.048Z,3.40
2022-12-27T21:29:54.087Z,3.20
2022-12-27T21:32:41.561Z,3.10
2022-12-27T21:35:28.905Z,2.90
2022-12-27T21:38:16.091Z,2.80
2022-12-27T21:41:04.583Z,2.60
2022-12-27T21:43:53.781Z,2.50
2022-12-27T21:46:41.963Z,2.30
2022-12-27T21:49:29.392Z,2.10
2022-12-27T21:52:16.834Z,1.90
2022-12-27T21:55:03.967Z,1.80
2022-12-27T21:57:51.126Z,1.60
2022-12-27T22:00:39.910Z,1.50
2022-12-27T22:03:27.316Z,1.30
2022-12-27T22:06:15.529Z,1.20
2022-12-27T22:09:04.127Z,1.10
2022-12-27T22:11:51.748Z,1.00
2022-12-27T22:14:39.118Z,0.90
2022-12-27T22:17:27.706Z,0.80
2022-12-27T22:20:14.843Z,0.70
2022-12-27T22:23:02.115Z,0.60
2022-12-27T22:25:49.559Z,0.50
2022-12-27T22:28:36.673Z,0.40
2022-12-27T22:31:24.910Z,0.30
2022-12-27T22:34:13.403Z,0.20
2022-12-27T22:37:01.101Z,0.20
2022-12-27T22:39:48.787Z,0.10
2022-12-27T22:42:35.945Z,0.00
2022-12-27T22:45:23.111Z,0.00
2022-12-27T22:48:10.477Z,-0.10
2022-12-27T22:50:59.349Z,-0.10
2022-12-27T22:53:47.010Z,-0.10
2022-12-27T22:56:35.577Z,-0.10
2022-12-27T22:59:22.847Z,-0.10
2022-12-27T23:02:10.630Z,0.00
2022-12-27T23:04:57.927Z,0.20
2022-12-27T23:08:05.781Z,0.30
2022-12-27T23:10:54.250Z,0.40
2022-12-27T23:13:41.666Z,0.40
2022-12-27T23:16:29.445Z,0.40
2022-12-27T23:19:17.571Z,0.40
2022-12-27T23:22:05.108Z,0.40
2022-12-27T23:24:53.516Z,0.40
2022-12-27T23:27:40.725Z,0.40
2022-12-27T23:30:27.867Z,0.40
2022-12-27T23:33:14.875Z,0.30
2022-12-27T23:36:02.267Z,0.30
2022-12-27T23:38:50.018Z,0.30
2022-12-27T23:41:38.951Z,0.20
2022-12-27T23:44:33.501Z,0.10
2022-12-27T23:47:21.673Z,0.10
2022-12-27T23:50:09.477Z,0.10
2022-12-27T23:52:57.040Z,0.00
2022-12-27T23:55:44.216Z,0.00
2022-12-27T23:58:32.782Z,0.00
